Terminal Aerodrome Forecast
Issued by NWS Atlanta, GA

Home | Current Version | Previous Version | Text Only | Print | Product List | Glossary On
Versions: 1 2 3 4 5 6 7 8 9 10 11 12 13 14
890
FTUS42 KFFC 211120
TAFCSG
TAF
KCSG 211120Z 2112/2212 09003KT P6SM SCT025 BKN050
      TEMPO 2112/2114 BKN025
     FM211500 14005KT P6SM SCT025 BKN045
     FM220300 VRB03KT 5SM BR SCT008 BKN035
     FM220600 36005KT 3SM BR BKN008 OVC025=

USA.gov is the U.S. government's official web portal to all federal, state and local government web resources and services.